sensor_id;sensor_type;location;lat;lon;timestamp;temperature;humidity
23233;DHT22;11785;49.500;8.288;2023-06-01T00:01:48;15.80;58.10
23233;DHT22;11785;49.500;8.288;2023-06-01T00:04:14;15.70;58.10
23233;DHT22;11785;49.500;8.288;2023-06-01T00:06:40;15.70;58.10
23233;DHT22;11785;49.500;8.288;2023-06-01T00:09:06;15.60;58.10
23233;DHT22;11785;49.500;8.288;2023-06-01T00:11:32;15.60;58.10
23233;DHT22;11785;49.500;8.288;2023-06-01T00:13:58;15.60;58.10
23233;DHT22;11785;49.500;8.288;2023-06-01T00:16:23;15.60;58.10
23233;DHT22;11785;49.500;8.288;2023-06-01T00:18:49;15.50;58.20
23233;DHT22;11785;49.500;8.288;2023-06-01T00:21:18;15.40;58.20
23233;DHT22;11785;49.500;8.288;2023-06-01T00:23:44;15.40;58.20
23233;DHT22;11785;49.500;8.288;2023-06-01T00:26:10;15.30;58.20
23233;DHT22;11785;49.500;8.288;2023-06-01T00:28:35;15.20;58.30
23233;DHT22;11785;49.500;8.288;2023-06-01T00:31:01;15.10;58.30
23233;DHT22;11785;49.500;8.288;2023-06-01T00:33:26;15.00;58.40
23233;DHT22;11785;49.500;8.288;2023-06-01T00:35:52;14.90;58.40
23233;DHT22;11785;49.500;8.288;2023-06-01T00:38:18;14.90;58.40
23233;DHT22;11785;49.500;8.288;2023-06-01T00:40:43;14.90;58.40
23233;DHT22;11785;49.500;8.288;2023-06-01T00:43:10;14.90;58.40
23233;DHT22;11785;49.500;8.288;2023-06-01T00:45:36;14.90;58.40
23233;DHT22;11785;49.500;8.288;2023-06-01T00:48:03;14.80;58.40
23233;DHT22;11785;49.500;8.288;2023-06-01T00:50:30;14.70;58.50
23233;DHT22;11785;49.500;8.288;2023-06-01T00:52:57;14.70;58.50
23233;DHT22;11785;49.500;8.288;2023-06-01T00:55:23;14.70;58.50
23233;DHT22;11785;49.500;8.288;2023-06-01T00:57:50;14.70;58.50
23233;DHT22;11785;49.500;8.288;2023-06-01T01:00:16;14.80;58.50
23233;DHT22;11785;49.500;8.288;2023-06-01T01:02:42;14.80;58.50
23233;DHT22;11785;49.500;8.288;2023-06-01T01:05:14;14.80;58.50
23233;DHT22;11785;49.500;8.288;2023-06-01T01:10:19;14.80;58.50
23233;DHT22;11785;49.500;8.288;2023-06-01T01:12:57;14.80;58.50
23233;DHT22;11785;49.500;8.288;2023-06-01T01:15:32;14.80;58.50
23233;DHT22;11785;49.500;8.288;2023-06-01T01:18:06;14.80;58.50
23233;DHT22;11785;49.500;8.288;2023-06-01T01:20:41;14.80;58.50
23233;DHT22;11785;49.500;8.288;2023-06-01T01:26:24;14.70;58.50
23233;DHT22;11785;49.500;8.288;2023-06-01T01:29:00;14.70;58.50
23233;DHT22;11785;49.500;8.288;2023-06-01T01:31:28;14.70;58.50
23233;DHT22;11785;49.500;8.288;2023-06-01T01:33:56;14.80;58.50
23233;DHT22;11785;49.500;8.288;2023-06-01T01:36:23;14.80;58.50
23233;DHT22;11785;49.500;8.288;2023-06-01T01:38:49;14.80;58.50
23233;DHT22;11785;49.500;8.288;2023-06-01T01:41:14;14.80;58.50
23233;DHT22;11785;49.500;8.288;2023-06-01T01:43:41;14.70;58.50
23233;DHT22;11785;49.500;8.288;2023-06-01T01:51:50;14.70;58.50
23233;DHT22;11785;49.500;8.288;2023-06-01T01:54:18;14.70;58.50
23233;DHT22;11785;49.500;8.288;2023-06-01T01:56:44;14.70;58.60
23233;DHT22;11785;49.500;8.288;2023-06-01T01:59:12;14.60;58.60
23233;DHT22;11785;49.500;8.288;2023-06-01T02:01:38;14.60;58.60
23233;DHT22;11785;49.500;8.288;2023-06-01T02:04:07;14.60;58.60
23233;DHT22;11785;49.500;8.288;2023-06-01T02:06:33;14.50;58.60
23233;DHT22;11785;49.500;8.288;2023-06-01T02:08:59;14.50;58.60
23233;DHT22;11785;49.500;8.288;2023-06-01T02:11:25;14.50;58.60
23233;DHT22;11785;49.500;8.288;2023-06-01T02:13:50;14.60;58.60
23233;DHT22;11785;49.500;8.288;2023-06-01T02:16:16;14.60;58.60
23233;DHT22;11785;49.500;8.288;2023-06-01T02:18:44;14.60;58.60
23233;DHT22;11785;49.500;8.288;2023-06-01T02:21:12;14.60;58.60
23233;DHT22;11785;49.500;8.288;2023-06-01T02:23:38;14.60;58.60
23233;DHT22;11785;49.500;8.288;2023-06-01T02:26:05;14.60;58.60
23233;DHT22;11785;49.500;8.288;2023-06-01T02:28:31;14.60;58.60
23233;DHT22;11785;49.500;8.288;2023-06-01T02:30:56;14.60;58.60
23233;DHT22;11785;49.500;8.288;2023-06-01T02:33:22;14.60;58.60
23233;DHT22;11785;49.500;8.288;2023-06-01T02:35:50;14.50;58.60
23233;DHT22;11785;49.500;8.288;2023-06-01T02:38:16;14.50;58.60
23233;DHT22;11785;49.500;8.288;2023-06-01T02:40:42;14.50;58.70
23233;DHT22;11785;49.500;8.288;2023-06-01T02:43:08;14.50;58.70
23233;DHT22;11785;49.500;8.288;2023-06-01T02:45:33;14.50;58.70
23233;DHT22;11785;49.500;8.288;2023-06-01T02:47:59;14.50;58.70
23233;DHT22;11785;49.500;8.288;2023-06-01T02:50:24;14.50;58.70
23233;DHT22;11785;49.500;8.288;2023-06-01T02:52:50;14.50;58.70
23233;DHT22;11785;49.500;8.288;2023-06-01T02:55:16;14.50;58.70
23233;DHT22;11785;49.500;8.288;2023-06-01T02:57:42;14.60;58.60
23233;DHT22;11785;49.500;8.288;2023-06-01T03:00:08;14.60;58.60
23233;DHT22;11785;49.500;8.288;2023-06-01T03:02:41;14.60;58.60
23233;DHT22;11785;49.500;8.288;2023-06-01T03:05:08;14.50;58.70
23233;DHT22;11785;49.500;8.288;2023-06-01T03:07:34;14.60;58.70
23233;DHT22;11785;49.500;8.288;2023-06-01T03:09:59;14.60;58.70
23233;DHT22;11785;49.500;8.288;2023-06-01T03:12:25;14.60;58.70
23233;DHT22;11785;49.500;8.288;2023-06-01T03:14:51;14.60;58.70
23233;DHT22;11785;49.500;8.288;2023-06-01T03:17:16;14.50;58.70
23233;DHT22;11785;49.500;8.288;2023-06-01T03:19:42;14.50;58.70
23233;DHT22;11785;49.500;8.288;2023-06-01T03:22:07;14.40;58.80
23233;DHT22;11785;49.500;8.288;2023-06-01T03:24:33;14.30;58.80
23233;DHT22;11785;49.500;8.288;2023-06-01T03:26:59;14.20;58.80
23233;DHT22;11785;49.500;8.288;2023-06-01T03:29:26;14.10;58.90
23233;DHT22;11785;49.500;8.288;2023-06-01T03:31:52;14.10;58.90
23233;DHT22;11785;49.500;8.288;2023-06-01T03:34:17;14.10;58.90
23233;DHT22;11785;49.500;8.288;2023-06-01T03:36:43;14.10;58.90
23233;DHT22;11785;49.500;8.288;2023-06-01T03:39:16;14.00;59.00
23233;DHT22;11785;49.500;8.288;2023-06-01T03:41:42;14.10;58.90
23233;DHT22;11785;49.500;8.288;2023-06-01T03:44:09;14.10;59.00
23233;DHT22;11785;49.500;8.288;2023-06-01T03:46:35;14.10;59.00
23233;DHT22;11785;49.500;8.288;2023-06-01T03:49:01;14.10;59.00
23233;DHT22;11785;49.500;8.288;2023-06-01T03:51:26;14.20;59.00
23233;DHT22;11785;49.500;8.288;2023-06-01T03:53:52;14.10;59.00
23233;DHT22;11785;49.500;8.288;2023-06-01T03:56:18;14.20;59.00
23233;DHT22;11785;49.500;8.288;2023-06-01T03:58:45;14.20;59.00
23233;DHT22;11785;49.500;8.288;2023-06-01T04:01:42;14.20;59.00
23233;DHT22;11785;49.500;8.288;2023-06-01T04:04:08;14.20;59.00
23233;DHT22;11785;49.500;8.288;2023-06-01T04:06:35;14.30;59.00
23233;DHT22;11785;49.500;8.288;2023-06-01T04:09:02;14.40;59.00
23233;DHT22;11785;49.500;8.288;2023-06-01T04:11:32;14.40;58.90
23233;DHT22;11785;49.500;8.288;2023-06-01T04:13:58;14.50;58.90
23233;DHT22;11785;49.500;8.288;2023-06-01T04:16:24;14.50;58.90
23233;DHT22;11785;49.500;8.288;2023-06-01T04:18:50;14.50;58.90
23233;DHT22;11785;49.500;8.288;2023-06-01T04:21:16;14.60;58.90
23233;DHT22;11785;49.500;8.288;2023-06-01T04:23:43;14.70;58.90
23233;DHT22;11785;49.500;8.288;2023-06-01T04:29:31;14.70;58.90
23233;DHT22;11785;49.500;8.288;2023-06-01T04:38:42;15.00;58.80
23233;DHT22;11785;49.500;8.288;2023-06-01T04:41:11;15.10;58.80
23233;DHT22;11785;49.500;8.288;2023-06-01T04:43:37;15.10;58.80
23233;DHT22;11785;49.500;8.288;2023-06-01T04:46:05;15.20;58.70
23233;DHT22;11785;49.500;8.288;2023-06-01T04:48:32;15.30;58.70
23233;DHT22;11785;49.500;8.288;2023-06-01T04:50:58;15.40;58.70
23233;DHT22;11785;49.500;8.288;2023-06-01T04:56:49;15.60;58.60
23233;DHT22;11785;49.500;8.288;2023-06-01T04:59:14;15.70;58.60
23233;DHT22;11785;49.500;8.288;2023-06-01T05:01:40;15.80;58.50
23233;DHT22;11785;49.500;8.288;2023-06-01T05:04:06;15.90;58.50
23233;DHT22;11785;49.500;8.288;2023-06-01T05:06:31;16.00;58.50
23233;DHT22;11785;49.500;8.288;2023-06-01T05:09:31;16.10;58.50
23233;DHT22;11785;49.500;8.288;2023-06-01T05:11:56;16.20;58.40
23233;DHT22;11785;49.500;8.288;2023-06-01T05:14:22;16.30;58.40
23233;DHT22;11785;49.500;8.288;2023-06-01T05:16:48;16.40;58.40
23233;DHT22;11785;49.500;8.288;2023-06-01T05:19:14;16.50;58.30
23233;DHT22;11785;49.500;8.288;2023-06-01T05:21:42;16.60;58.30
23233;DHT22;11785;49.500;8.288;2023-06-01T05:27:30;16.80;58.20
23233;DHT22;11785;49.500;8.288;2023-06-01T05:29:56;16.90;58.10
23233;DHT22;11785;49.500;8.288;2023-06-01T05:32:21;17.00;58.10
23233;DHT22;11785;49.500;8.288;2023-06-01T05:34:47;17.10;58.00
23233;DHT22;11785;49.500;8.288;2023-06-01T05:37:12;17.10;58.00
23233;DHT22;11785;49.500;8.288;2023-06-01T05:39:38;17.10;58.00
23233;DHT22;11785;49.500;8.288;2023-06-01T05:42:04;17.20;58.00
23233;DHT22;11785;49.500;8.288;2023-06-01T05:44:31;17.20;58.00
23233;DHT22;11785;49.500;8.288;2023-06-01T05:46:56;17.30;57.90
23233;DHT22;11785;49.500;8.288;2023-06-01T05:49:22;17.30;57.90
23233;DHT22;11785;49.500;8.288;2023-06-01T05:51:48;17.40;57.90
23233;DHT22;11785;49.500;8.288;2023-06-01T05:54:13;17.50;57.90
23233;DHT22;11785;49.500;8.288;2023-06-01T05:56:39;17.60;57.80
23233;DHT22;11785;49.500;8.288;2023-06-01T05:59:06;17.60;57.80
23233;DHT22;11785;49.500;8.288;2023-06-01T06:01:31;17.60;57.80
23233;DHT22;11785;49.500;8.288;2023-06-01T06:03:57;17.70;57.80
23233;DHT22;11785;49.500;8.288;2023-06-01T06:06:23;17.70;57.80
23233;DHT22;11785;49.500;8.288;2023-06-01T06:08:49;17.70;57.80
23233;DHT22;11785;49.500;8.288;2023-06-01T06:11:15;17.80;57.80
23233;DHT22;11785;49.500;8.288;2023-06-01T06:13:41;17.90;57.70
23233;DHT22;11785;49.500;8.288;2023-06-01T06:16:07;17.90;57.70
23233;DHT22;11785;49.500;8.288;2023-06-01T06:18:33;18.00;57.70
23233;DHT22;11785;49.500;8.288;2023-06-01T06:20:59;18.00;57.70
23233;DHT22;11785;49.500;8.288;2023-06-01T06:23:24;18.10;57.70
23233;DHT22;11785;49.500;8.288;2023-06-01T06:25:50;18.30;57.70
23233;DHT22;11785;49.500;8.288;2023-06-01T06:28:15;18.50;57.60
23233;DHT22;11785;49.500;8.288;2023-06-01T06:30:41;18.50;57.60
23233;DHT22;11785;49.500;8.288;2023-06-01T06:33:07;18.60;57.50
23233;DHT22;11785;49.500;8.288;2023-06-01T06:35:32;18.60;57.50
23233;DHT22;11785;49.500;8.288;2023-06-01T06:37:58;18.60;57.50
23233;DHT22;11785;49.500;8.288;2023-06-01T06:40:24;18.70;57.50
23233;DHT22;11785;49.500;8.288;2023-06-01T06:42:49;18.70;57.50
23233;DHT22;11785;49.500;8.288;2023-06-01T06:45:16;18.80;57.50
23233;DHT22;11785;49.500;8.288;2023-06-01T06:47:42;18.80;57.40
23233;DHT22;11785;49.500;8.288;2023-06-01T06:50:10;19.00;57.40
23233;DHT22;11785;49.500;8.288;2023-06-01T06:52:37;19.20;57.30
23233;DHT22;11785;49.500;8.288;2023-06-01T06:55:02;19.20;57.30
23233;DHT22;11785;49.500;8.288;2023-06-01T06:57:28;19.30;57.30
23233;DHT22;11785;49.500;8.288;2023-06-01T06:59:54;19.40;57.30
23233;DHT22;11785;49.500;8.288;2023-06-01T07:02:19;19.50;57.20
23233;DHT22;11785;49.500;8.288;2023-06-01T07:04:45;19.50;57.20
23233;DHT22;11785;49.500;8.288;2023-06-01T07:07:11;19.50;57.30
23233;DHT22;11785;49.500;8.288;2023-06-01T07:09:36;19.60;57.20
23233;DHT22;11785;49.500;8.288;2023-06-01T07:12:02;19.70;57.20
23233;DHT22;11785;49.500;8.288;2023-06-01T07:14:28;19.80;57.20
23233;DHT22;11785;49.500;8.288;2023-06-01T07:16:53;20.00;57.10
23233;DHT22;11785;49.500;8.288;2023-06-01T07:19:19;20.00;57.10
23233;DHT22;11785;49.500;8.288;2023-06-01T07:21:44;20.10;57.10
23233;DHT22;11785;49.500;8.288;2023-06-01T07:24:10;20.10;57.10
23233;DHT22;11785;49.500;8.288;2023-06-01T07:26:36;20.10;57.10
23233;DHT22;11785;49.500;8.288;2023-06-01T07:29:02;20.20;57.10
23233;DHT22;11785;49.500;8.288;2023-06-01T07:31:28;20.30;57.00
23233;DHT22;11785;49.500;8.288;2023-06-01T07:33:54;20.50;57.00
23233;DHT22;11785;49.500;8.288;2023-06-01T07:36:22;20.50;56.90
23233;DHT22;11785;49.500;8.288;2023-06-01T07:38:49;20.40;57.00
23233;DHT22;11785;49.500;8.288;2023-06-01T07:41:15;20.60;56.90
23233;DHT22;11785;49.500;8.288;2023-06-01T07:43:41;20.80;56.90
23233;DHT22;11785;49.500;8.288;2023-06-01T07:46:06;20.90;56.90
23233;DHT22;11785;49.500;8.288;2023-06-01T07:48:32;20.80;56.90
23233;DHT22;11785;49.500;8.288;2023-06-01T07:51:02;20.90;56.90
23233;DHT22;11785;49.500;8.288;2023-06-01T07:53:28;21.00;56.80
23233;DHT22;11785;49.500;8.288;2023-06-01T07:55:53;21.00;56.80
23233;DHT22;11785;49.500;8.288;2023-06-01T07:58:19;21.00;56.80
23233;DHT22;11785;49.500;8.288;2023-06-01T08:00:44;21.20;56.80
23233;DHT22;11785;49.500;8.288;2023-06-01T08:03:10;21.40;56.70
23233;DHT22;11785;49.500;8.288;2023-06-01T08:05:36;21.40;56.70
23233;DHT22;11785;49.500;8.288;2023-06-01T08:08:02;21.40;56.60
23233;DHT22;11785;49.500;8.288;2023-06-01T08:10:28;21.50;56.60
23233;DHT22;11785;49.500;8.288;2023-06-01T08:16:15;21.60;56.60
23233;DHT22;11785;49.500;8.288;2023-06-01T08:18:41;21.80;56.60
23233;DHT22;11785;49.500;8.288;2023-06-01T08:21:07;22.10;56.50
23233;DHT22;11785;49.500;8.288;2023-06-01T08:23:35;22.00;56.50
23233;DHT22;11785;49.500;8.288;2023-06-01T08:26:01;22.10;56.40
23233;DHT22;11785;49.500;8.288;2023-06-01T08:28:27;22.20;56.40
23233;DHT22;11785;49.500;8.288;2023-06-01T08:30:52;22.10;56.50
23233;DHT22;11785;49.500;8.288;2023-06-01T08:33:18;22.40;56.40
23233;DHT22;11785;49.500;8.288;2023-06-01T08:35:43;22.40;56.30
23233;DHT22;11785;49.500;8.288;2023-06-01T08:38:09;22.40;56.30
23233;DHT22;11785;49.500;8.288;2023-06-01T08:40:35;22.50;56.30
23233;DHT22;11785;49.500;8.288;2023-06-01T08:43:20;22.60;56.30
23233;DHT22;11785;49.500;8.288;2023-06-01T08:45:46;22.70;56.30
23233;DHT22;11785;49.500;8.288;2023-06-01T08:48:16;22.80;56.20
23233;DHT22;11785;49.500;8.288;2023-06-01T08:50:44;23.10;56.20
23233;DHT22;11785;49.500;8.288;2023-06-01T08:53:12;22.90;56.20
23233;DHT22;11785;49.500;8.288;2023-06-01T08:55:38;23.00;56.20
23233;DHT22;11785;49.500;8.288;2023-06-01T08:58:04;23.00;56.20
23233;DHT22;11785;49.500;8.288;2023-06-01T09:00:31;23.20;56.10
23233;DHT22;11785;49.500;8.288;2023-06-01T09:02:58;23.20;56.10
23233;DHT22;11785;49.500;8.288;2023-06-01T09:05:24;23.20;56.10
23233;DHT22;11785;49.500;8.288;2023-06-01T09:07:50;23.40;56.10
23233;DHT22;11785;49.500;8.288;2023-06-01T09:10:22;23.50;56.00
23233;DHT22;11785;49.500;8.288;2023-06-01T09:12:53;23.80;56.00
23233;DHT22;11785;49.500;8.288;2023-06-01T09:15:19;24.10;55.90
23233;DHT22;11785;49.500;8.288;2023-06-01T09:17:48;24.30;55.80
23233;DHT22;11785;49.500;8.288;2023-06-01T09:20:23;24.30;55.80
23233;DHT22;11785;49.500;8.288;2023-06-01T09:22:50;24.40;55.80
23233;DHT22;11785;49.500;8.288;2023-06-01T09:25:16;24.40;55.80
23233;DHT22;11785;49.500;8.288;2023-06-01T09:27:43;24.60;55.70
23233;DHT22;11785;49.500;8.288;2023-06-01T09:30:09;24.80;55.70
23233;DHT22;11785;49.500;8.288;2023-06-01T09:35:57;24.40;55.70
23233;DHT22;11785;49.500;8.288;2023-06-01T09:38:25;24.50;55.70
23233;DHT22;11785;49.500;8.288;2023-06-01T09:41:02;24.90;55.60
23233;DHT22;11785;49.500;8.288;2023-06-01T09:43:28;25.20;46.60
23233;DHT22;11785;49.500;8.288;2023-06-01T09:46:07;25.30;46.60
23233;DHT22;11785;49.500;8.288;2023-06-01T09:48:33;25.10;46.60
23233;DHT22;11785;49.500;8.288;2023-06-01T09:50:58;25.30;46.70
23233;DHT22;11785;49.500;8.288;2023-06-01T09:53:25;25.60;46.80
23233;DHT22;11785;49.500;8.288;2023-06-01T09:55:58;25.80;46.80
23233;DHT22;11785;49.500;8.288;2023-06-01T09:58:24;25.90;47.00
23233;DHT22;11785;49.500;8.288;2023-06-01T10:00:50;25.80;46.90
23233;DHT22;11785;49.500;8.288;2023-06-01T10:03:18;25.90;46.90
23233;DHT22;11785;49.500;8.288;2023-06-01T10:05:45;25.90;46.90
23233;DHT22;11785;49.500;8.288;2023-06-01T10:08:13;25.80;46.90
23233;DHT22;11785;49.500;8.288;2023-06-01T10:10:39;25.70;46.80
23233;DHT22;11785;49.500;8.288;2023-06-01T10:13:07;25.60;46.90
23233;DHT22;11785;49.500;8.288;2023-06-01T10:15:33;25.60;46.90
23233;DHT22;11785;49.500;8.288;2023-06-01T10:18:00;25.80;46.90
23233;DHT22;11785;49.500;8.288;2023-06-01T10:20:26;25.80;46.90
23233;DHT22;11785;49.500;8.288;2023-06-01T10:22:52;25.80;46.90
23233;DHT22;11785;49.500;8.288;2023-06-01T10:25:20;25.90;47.00
23233;DHT22;11785;49.500;8.288;2023-06-01T10:27:58;26.10;47.00
23233;DHT22;11785;49.500;8.288;2023-06-01T10:30:25;26.20;47.10
23233;DHT22;11785;49.500;8.288;2023-06-01T10:32:50;26.30;47.10
23233;DHT22;11785;49.500;8.288;2023-06-01T10:41:27;27.20;47.50
23233;DHT22;11785;49.500;8.288;2023-06-01T10:43:53;26.80;47.40
23233;DHT22;11785;49.500;8.288;2023-06-01T10:46:39;26.80;47.40
23233;DHT22;11785;49.500;8.288;2023-06-01T10:49:08;26.70;47.30
23233;DHT22;11785;49.500;8.288;2023-06-01T10:51:33;27.10;47.50
23233;DHT22;11785;49.500;8.288;2023-06-01T10:54:28;27.20;47.50
23233;DHT22;11785;49.500;8.288;2023-06-01T11:00:25;27.80;47.70
23233;DHT22;11785;49.500;8.288;2023-06-01T11:02:58;28.20;47.80
23233;DHT22;11785;49.500;8.288;2023-06-01T11:05:45;28.30;48.00
23233;DHT22;11785;49.500;8.288;2023-06-01T11:13:28;27.50;47.70
23233;DHT22;11785;49.500;8.288;2023-06-01T11:18:46;27.70;47.90
23233;DHT22;11785;49.500;8.288;2023-06-01T11:21:16;27.80;47.90
23233;DHT22;11785;49.500;8.288;2023-06-01T11:23:43;28.40;48.00
23233;DHT22;11785;49.500;8.288;2023-06-01T11:26:14;28.80;48.20
23233;DHT22;11785;49.500;8.288;2023-06-01T11:28:41;29.10;48.20
23233;DHT22;11785;49.500;8.288;2023-06-01T11:31:14;29.30;48.40
23233;DHT22;11785;49.500;8.288;2023-06-01T11:33:49;29.50;48.40
23233;DHT22;11785;49.500;8.288;2023-06-01T11:36:18;29.60;48.50
23233;DHT22;11785;49.500;8.288;2023-06-01T11:38:45;29.70;48.50
23233;DHT22;11785;49.500;8.288;2023-06-01T11:41:11;29.70;48.50
23233;DHT22;11785;49.500;8.288;2023-06-01T11:43:37;29.40;48.40
23233;DHT22;11785;49.500;8.288;2023-06-01T11:46:04;29.40;48.40
23233;DHT22;11785;49.500;8.288;2023-06-01T11:48:30;29.70;48.40
23233;DHT22;11785;49.500;8.288;2023-06-01T11:50:56;29.70;48.50
23233;DHT22;11785;49.500;8.288;2023-06-01T11:53:23;29.40;48.40
23233;DHT22;11785;49.500;8.288;2023-06-01T11:55:55;29.60;48.50
23233;DHT22;11785;49.500;8.288;2023-06-01T11:58:23;29.70;48.60
23233;DHT22;11785;49.500;8.288;2023-06-01T12:00:48;30.40;48.80
23233;DHT22;11785;49.500;8.288;2023-06-01T12:03:14;31.40;49.10
23233;DHT22;11785;49.500;8.288;2023-06-01T12:05:40;31.90;49.30
23233;DHT22;11785;49.500;8.288;2023-06-01T12:08:13;32.20;49.40
23233;DHT22;11785;49.500;8.288;2023-06-01T12:10:40;32.90;49.70
23233;DHT22;11785;49.500;8.288;2023-06-01T12:13:07;33.20;49.80
23233;DHT22;11785;49.500;8.288;2023-06-01T12:15:33;33.30;49.80
23233;DHT22;11785;49.500;8.288;2023-06-01T12:17:59;33.70;49.90
23233;DHT22;11785;49.500;8.288;2023-06-01T12:22:58;34.90;50.30
23233;DHT22;11785;49.500;8.288;2023-06-01T12:25:24;35.00;50.40
23233;DHT22;11785;49.500;8.288;2023-06-01T12:28:08;35.10;50.40
23233;DHT22;11785;49.500;8.288;2023-06-01T12:30:36;35.20;50.40
23233;DHT22;11785;49.500;8.288;2023-06-01T12:33:02;36.20;50.70
23233;DHT22;11785;49.500;8.288;2023-06-01T12:35:30;36.80;51.00
23233;DHT22;11785;49.500;8.288;2023-06-01T12:38:09;37.10;51.10
23233;DHT22;11785;49.500;8.288;2023-06-01T12:40:38;37.30;51.20
23233;DHT22;11785;49.500;8.288;2023-06-01T12:43:04;36.60;50.90
23233;DHT22;11785;49.500;8.288;2023-06-01T12:45:39;36.80;51.00
23233;DHT22;11785;49.500;8.288;2023-06-01T12:48:06;37.30;51.20
23233;DHT22;11785;49.500;8.288;2023-06-01T12:50:32;36.70;51.00
23233;DHT22;11785;49.500;8.288;2023-06-01T12:52:57;36.50;51.00
23233;DHT22;11785;49.500;8.288;2023-06-01T12:55:23;36.50;51.00
23233;DHT22;11785;49.500;8.288;2023-06-01T12:57:53;36.10;50.80
23233;DHT22;11785;49.500;8.288;2023-06-01T13:00:19;36.70;51.00
23233;DHT22;11785;49.500;8.288;2023-06-01T13:02:45;37.40;51.20
23233;DHT22;11785;49.500;8.288;2023-06-01T13:05:14;37.60;51.30
23233;DHT22;11785;49.500;8.288;2023-06-01T13:07:42;38.40;51.60
23233;DHT22;11785;49.500;8.288;2023-06-01T13:10:10;38.40;51.50
23233;DHT22;11785;49.500;8.288;2023-06-01T13:12:35;38.40;51.60
23233;DHT22;11785;49.500;8.288;2023-06-01T13:15:01;38.70;51.70
23233;DHT22;11785;49.500;8.288;2023-06-01T13:17:28;38.60;51.70
23233;DHT22;11785;49.500;8.288;2023-06-01T13:19:54;38.80;51.70
23233;DHT22;11785;49.500;8.288;2023-06-01T13:22:20;38.50;51.60
23233;DHT22;11785;49.500;8.288;2023-06-01T13:24:46;37.90;51.40
23233;DHT22;11785;49.500;8.288;2023-06-01T13:27:12;37.60;51.30
23233;DHT22;11785;49.500;8.288;2023-06-01T13:29:37;37.70;51.40
23233;DHT22;11785;49.500;8.288;2023-06-01T13:32:03;38.20;51.50
23233;DHT22;11785;49.500;8.288;2023-06-01T13:34:29;38.90;51.70
23233;DHT22;11785;49.500;8.288;2023-06-01T13:36:54;38.70;51.70
23233;DHT22;11785;49.500;8.288;2023-06-01T13:39:22;39.50;51.90
23233;DHT22;11785;49.500;8.288;2023-06-01T13:41:48;39.90;52.10
23233;DHT22;11785;49.500;8.288;2023-06-01T13:44:14;40.00;52.10
23233;DHT22;11785;49.500;8.288;2023-06-01T13:50:02;40.10;52.10
23233;DHT22;11785;49.500;8.288;2023-06-01T13:52:29;40.20;52.20
23233;DHT22;11785;49.500;8.288;2023-06-01T13:54:54;39.40;52.00
23233;DHT22;11785;49.500;8.288;2023-06-01T13:57:20;39.00;51.90
23233;DHT22;11785;49.500;8.288;2023-06-01T13:59:45;39.60;52.00
23233;DHT22;11785;49.500;8.288;2023-06-01T14:02:11;40.10;52.20
23233;DHT22;11785;49.500;8.288;2023-06-01T14:04:37;40.40;52.30
23233;DHT22;11785;49.500;8.288;2023-06-01T14:07:02;40.60;52.30
23233;DHT22;11785;49.500;8.288;2023-06-01T14:09:28;41.90;52.70
23233;DHT22;11785;49.500;8.288;2023-06-01T14:11:54;42.20;52.80
23233;DHT22;11785;49.500;8.288;2023-06-01T14:14:19;41.60;52.70
23233;DHT22;11785;49.500;8.288;2023-06-01T14:16:45;41.30;52.60
23233;DHT22;11785;49.500;8.288;2023-06-01T14:19:10;41.90;52.70
23233;DHT22;11785;49.500;8.288;2023-06-01T14:21:36;41.10;52.50
23233;DHT22;11785;49.500;8.288;2023-06-01T14:24:02;41.70;52.70
23233;DHT22;11785;49.500;8.288;2023-06-01T14:26:28;41.10;52.50
23233;DHT22;11785;49.500;8.288;2023-06-01T14:28:54;42.00;52.80
23233;DHT22;11785;49.500;8.288;2023-06-01T14:31:20;42.70;53.00
23233;DHT22;11785;49.500;8.288;2023-06-01T14:33:46;42.60;53.00
23233;DHT22;11785;49.500;8.288;2023-06-01T14:36:11;42.10;52.80
23233;DHT22;11785;49.500;8.288;2023-06-01T14:38:37;41.10;52.50
23233;DHT22;11785;49.500;8.288;2023-06-01T14:41:03;41.40;52.60
23233;DHT22;11785;49.500;8.288;2023-06-01T14:43:28;41.80;52.80
23233;DHT22;11785;49.500;8.288;2023-06-01T14:45:58;41.60;52.70
23233;DHT22;11785;49.500;8.288;2023-06-01T14:48:24;40.80;52.50
23233;DHT22;11785;49.500;8.288;2023-06-01T14:50:49;40.30;52.30
23233;DHT22;11785;49.500;8.288;2023-06-01T14:53:15;38.60;51.80
23233;DHT22;11785;49.500;8.288;2023-06-01T14:55:41;37.00;51.30
23233;DHT22;11785;49.500;8.288;2023-06-01T14:58:10;35.50;50.80
23233;DHT22;11785;49.500;8.288;2023-06-01T15:00:35;34.40;50.40
23233;DHT22;11785;49.500;8.288;2023-06-01T15:03:03;33.50;50.10
23233;DHT22;11785;49.500;8.288;2023-06-01T15:05:28;33.10;50.00
23233;DHT22;11785;49.500;8.288;2023-06-01T15:07:54;33.30;50.10
23233;DHT22;11785;49.500;8.288;2023-06-01T15:10:20;32.80;49.90
23233;DHT22;11785;49.500;8.288;2023-06-01T15:12:46;32.60;49.80
23233;DHT22;11785;49.500;8.288;2023-06-01T15:15:11;32.30;49.70
23233;DHT22;11785;49.500;8.288;2023-06-01T15:17:38;31.70;49.50
23233;DHT22;11785;49.500;8.288;2023-06-01T15:20:05;31.30;49.30
23233;DHT22;11785;49.500;8.288;2023-06-01T15:22:31;31.00;49.30
23233;DHT22;11785;49.500;8.288;2023-06-01T15:24:57;31.00;49.20
23233;DHT22;11785;49.500;8.288;2023-06-01T15:27:22;30.80;49.10
23233;DHT22;11785;49.500;8.288;2023-06-01T15:29:51;30.80;49.10
23233;DHT22;11785;49.500;8.288;2023-06-01T15:32:17;30.50;49.00
23233;DHT22;11785;49.500;8.288;2023-06-01T15:34:42;30.50;49.00
23233;DHT22;11785;49.500;8.288;2023-06-01T15:37:09;30.60;49.00
23233;DHT22;11785;49.500;8.288;2023-06-01T15:39:35;30.70;49.10
23233;DHT22;11785;49.500;8.288;2023-06-01T15:42:05;30.70;49.10
23233;DHT22;11785;49.500;8.288;2023-06-01T15:44:31;30.50;49.00
23233;DHT22;11785;49.500;8.288;2023-06-01T15:46:56;30.60;49.10
23233;DHT22;11785;49.500;8.288;2023-06-01T15:49:22;30.40;49.00
23233;DHT22;11785;49.500;8.288;2023-06-01T15:51:48;30.50;49.00
23233;DHT22;11785;49.500;8.288;2023-06-01T15:54:13;30.30;48.90
23233;DHT22;11785;49.500;8.288;2023-06-01T15:56:39;30.20;48.90
23233;DHT22;11785;49.500;8.288;2023-06-01T15:59:04;30.10;48.80
23233;DHT22;11785;49.500;8.288;2023-06-01T16:01:30;30.10;48.80
23233;DHT22;11785;49.500;8.288;2023-06-01T16:03:56;30.10;48.80
23233;DHT22;11785;49.500;8.288;2023-06-01T16:06:21;30.10;48.80
23233;DHT22;11785;49.500;8.288;2023-06-01T16:08:47;30.00;48.80
23233;DHT22;11785;49.500;8.288;2023-06-01T16:11:12;30.00;48.80
23233;DHT22;11785;49.500;8.288;2023-06-01T16:13:38;30.10;48.80
23233;DHT22;11785;49.500;8.288;2023-06-01T16:16:03;30.20;48.80
23233;DHT22;11785;49.500;8.288;2023-06-01T16:18:29;30.40;48.90
23233;DHT22;11785;49.500;8.288;2023-06-01T16:20:55;30.50;48.90
23233;DHT22;11785;49.500;8.288;2023-06-01T16:23:20;30.30;48.90
23233;DHT22;11785;49.500;8.288;2023-06-01T16:25:46;30.00;48.70
23233;DHT22;11785;49.500;8.288;2023-06-01T16:28:11;30.10;48.80